Time;durP1;ratioP1;P1;durP2;ratioP2;P2;SDS_P1;SDS_P2;PMS_P1;PMS_P2;Temp;Humidity;BMP_temperature;BMP_pressure;BME280_temperature;BME280_humidity;BME280_pressure;Samples;Min_cycle;Max_cycle;Signal;HPM_P1;HPM_P2
2023/05/20 00:01:39;;;;;;;3.15;1.65;;;;;;;15.67;49.88;100526.81;10381385;28;20528;-56
2023/05/20 00:06:40;;;;;;;2.38;1.30;;;;;;;15.70;50.67;100538.09;10387857;28;20049;-56
2023/05/20 00:11:43;;;;;;;2.25;1.60;;;;;;;15.77;50.79;100541.00;10385484;28;20658;-56
2023/05/20 00:16:45;;;;;;;4.90;1.50;;;;;;;15.58;51.59;100528.53;10381133;28;20716;-57
2023/05/20 00:21:47;;;;;;;1.48;1.38;;;;;;;15.73;51.26;100529.75;10376748;28;20684;-56
2023/05/20 00:26:48;;;;;;;4.03;1.60;;;;;;;15.80;51.31;100524.63;10381447;28;20072;-56
2023/05/20 00:31:49;;;;;;;3.03;1.85;;;;;;;15.83;51.79;100529.69;10383320;28;20095;-56
2023/05/20 00:36:51;;;;;;;4.25;1.90;;;;;;;15.57;51.57;100486.63;10380820;28;20045;-56
2023/05/20 00:41:53;;;;;;;2.05;1.33;;;;;;;15.79;51.95;100522.94;10376635;28;20056;-56
2023/05/20 00:46:55;;;;;;;2.70;1.85;;;;;;;15.51;52.49;100520.25;10378148;28;20494;-57
2023/05/20 00:51:57;;;;;;;3.83;1.80;;;;;;;15.35;53.85;100520.06;10376066;28;20053;-56
2023/05/20 00:57:01;;;;;;;3.88;2.10;;;;;;;15.47;53.33;100513.50;10384657;28;20761;-56
2023/05/20 01:02:03;;;;;;;;;;;;;;;15.46;53.53;100517.19;10366864;28;20044;-56
2023/05/20 01:07:06;;;;;;;2.67;2.25;;;;;;;15.30;54.31;100500.88;10372452;28;19972;-56
2023/05/20 01:12:19;;;;;;;2.80;1.80;;;;;;;15.42;54.22;100509.56;10378039;28;20857;-55
2023/05/20 01:17:26;;;;;;;3.40;1.92;;;;;;;15.20;53.83;100468.75;10378323;28;20131;-56
2023/05/20 01:22:28;;;;;;;2.60;2.00;;;;;;;15.32;54.85;100505.09;10379231;28;20730;-55
2023/05/20 01:27:30;;;;;;;3.03;1.63;;;;;;;15.23;55.30;100491.75;10376521;28;20061;-55
2023/05/20 01:32:36;;;;;;;2.65;1.67;;;;;;;15.30;54.72;100492.84;10381182;28;20601;-55
2023/05/20 01:37:40;;;;;;;2.70;1.73;;;;;;;15.19;55.28;100489.34;10378857;28;20225;-56
2023/05/20 01:42:43;;;;;;;3.90;2.35;;;;;;;15.31;55.25;100494.50;10378478;28;20665;-55
2023/05/20 01:47:45;;;;;;;2.87;1.83;;;;;;;15.10;55.54;100479.53;10376280;28;20045;-55
2023/05/20 01:52:47;;;;;;;3.38;1.92;;;;;;;15.25;55.91;100482.53;10376127;28;20928;-55
2023/05/20 01:57:48;;;;;;;4.25;2.20;;;;;;;15.19;56.23;100478.63;10366689;28;20050;-55
2023/05/20 02:02:50;;;;;;;3.28;2.28;;;;;;;15.10;55.73;100471.47;10371024;28;20045;-55
2023/05/20 02:07:52;;;;;;;3.55;2.03;;;;;;;14.98;57.03;100472.63;10380444;28;20053;-55
2023/05/20 02:12:54;;;;;;;3.50;2.22;;;;;;;15.09;56.38;100455.53;10376487;28;20056;-55
2023/05/20 02:17:56;;;;;;;3.92;2.28;;;;;;;15.04;56.98;100458.63;10379405;28;20060;-55
2023/05/20 02:22:58;;;;;;;3.20;2.00;;;;;;;15.11;57.06;100475.84;10374460;28;20049;-55
2023/05/20 02:28:00;;;;;;;2.75;2.15;;;;;;;15.08;57.08;100465.41;10376840;28;20052;-56
2023/05/20 02:33:02;;;;;;;2.60;2.17;;;;;;;14.90;57.68;100465.34;10380488;28;20131;-54
2023/05/20 02:38:03;;;;;;;6.40;2.15;;;;;;;14.92;57.62;100470.53;10376531;28;20064;-55
2023/05/20 02:43:05;;;;;;;4.15;2.20;;;;;;;14.84;57.87;100474.78;10379549;28;20074;-55
2023/05/20 02:48:06;;;;;;;2.70;2.15;;;;;;;14.97;57.73;100477.16;10380972;28;20091;-55
2023/05/20 02:53:08;;;;;;;3.42;2.50;;;;;;;14.94;58.71;100473.94;10373593;28;20063;-55
2023/05/20 02:58:12;;;;;;;2.83;2.45;;;;;;;15.01;58.39;100464.31;10379766;28;20048;-55
2023/05/20 03:03:13;;;;;;;2.70;2.15;;;;;;;15.08;57.89;100465.41;10379140;28;20057;-56
2023/05/20 03:08:15;;;;;;;1.80;1.70;;;;;;;15.08;58.13;100469.94;10376181;28;20153;-56
2023/05/20 03:13:16;;;;;;;3.55;2.05;;;;;;;15.09;58.52;100461.75;10372771;28;20053;-56
2023/05/20 03:18:18;;;;;;;5.00;2.50;;;;;;;15.11;58.65;100449.03;10378261;28;20057;-55
2023/05/20 03:23:20;;;;;;;3.17;2.53;;;;;;;15.02;58.58;100448.06;10372979;28;20057;-55
2023/05/20 03:28:21;;;;;;;4.82;3.00;;;;;;;15.01;59.12;100442.84;10385327;28;20757;-55
2023/05/20 03:33:25;;;;;;;3.80;2.55;;;;;;;14.88;59.47;100426.25;10383671;28;20045;-56
2023/05/20 03:38:26;;;;;;;3.08;2.75;;;;;;;14.77;60.35;100422.81;10383780;28;20068;-55
2023/05/20 03:43:28;;;;;;;3.78;2.55;;;;;;;14.71;60.56;100415.31;10382990;28;20081;-56
2023/05/20 03:48:30;;;;;;;3.53;2.47;;;;;;;14.93;60.49;100432.88;10394380;28;20517;-55
2023/05/20 03:53:32;;;;;;;4.43;2.35;;;;;;;14.84;60.85;100431.91;10382355;28;20057;-56
2023/05/20 03:58:34;;;;;;;3.33;2.60;;;;;;;14.97;59.98;100430.75;10381634;28;20765;-55
2023/05/20 04:03:35;;;;;;;2.70;2.20;;;;;;;15.07;60.48;100452.16;10387024;28;20049;-55
2023/05/20 04:08:37;;;;;;;3.47;3.17;;;;;;;15.01;61.12;100454.44;10383151;28;20049;-56
2023/05/20 04:13:38;;;;;;;2.90;2.60;;;;;;;14.96;60.43;100435.25;10386631;28;20130;-55
2023/05/20 04:18:40;;;;;;;4.22;2.88;;;;;;;14.98;61.40;100438.66;10384250;28;20467;-56
2023/05/20 04:23:42;;;;;;;3.47;3.17;;;;;;;14.92;61.84;100441.06;10387928;28;20103;-56
2023/05/20 04:28:43;;;;;;;4.93;2.90;;;;;;;14.98;61.06;100437.78;10383224;28;21140;-56
2023/05/20 04:33:45;;;;;;;2.88;2.60;;;;;;;15.02;61.21;100448.06;10387657;28;20228;-57
2023/05/20 04:38:48;;;;;;;4.10;3.10;;;;;;;15.02;61.37;100440.03;10378171;28;20059;-59
2023/05/20 04:43:49;;;;;;;4.25;3.00;;;;;;;14.95;61.00;100422.00;10375210;28;20136;-56
2023/05/20 04:48:52;;;;;;;3.85;2.83;;;;;;;15.11;61.47;100443.66;10378776;28;20061;-55
2023/05/20 04:53:54;;;;;;;3.42;3.13;;;;;;;15.06;61.56;100439.72;10375659;28;20076;-56
2023/05/20 04:58:55;;;;;;;3.75;2.70;;;;;;;15.12;61.33;100440.00;10384853;28;20100;-56
2023/05/20 05:03:57;;;;;;;4.50;2.78;;;;;;;15.20;61.67;100448.13;10383148;28;20071;-56
2023/05/20 05:08:58;;;;;;;4.25;3.03;;;;;;;15.33;61.32;100433.53;10382622;28;20136;-55
2023/05/20 05:14:00;;;;;;;5.20;3.50;;;;;;;15.38;61.21;100439.28;10384961;28;20053;-56
2023/05/20 05:19:01;;;;;;;3.17;2.72;;;;;;;15.43;60.72;100434.31;10385538;28;20056;-56
2023/05/20 05:24:03;;;;;;;3.55;3.20;;;;;;;15.43;61.06;100426.25;10386658;28;21131;-56
2023/05/20 05:29:05;;;;;;;5.65;3.50;;;;;;;15.53;61.02;100432.41;10385964;28;20049;-54
2023/05/20 05:34:06;;;;;;;4.57;3.55;;;;;;;15.54;61.44;100423.38;10386597;28;20252;-54
2023/05/20 05:39:08;;;;;;;5.15;3.80;;;;;;;15.71;61.22;100424.38;10389594;28;20132;-54
2023/05/20 05:44:09;;;;;;;4.22;3.70;;;;;;;15.78;61.46;100423.78;10366655;28;20172;-55
2023/05/20 05:49:11;;;;;;;4.72;3.92;;;;;;;15.53;61.61;100410.13;10375429;28;20083;-55
2023/05/20 05:54:12;;;;;;;5.88;3.95;;;;;;;15.66;62.10;100409.75;10385818;28;20072;-54
2023/05/20 05:59:14;;;;;;;4.47;4.07;;;;;;;15.73;61.19;100414.34;10375737;28;20624;-54
2023/05/20 06:04:16;;;;;;;5.38;3.97;;;;;;;15.69;60.90;100396.03;10378237;28;20421;-54
2023/05/20 06:09:18;;;;;;;4.60;3.85;;;;;;;15.93;61.01;100421.41;10371680;28;20068;-57
2023/05/20 06:14:20;;;;;;;5.63;4.72;;;;;;;16.03;60.80;100430.22;10375804;28;20127;-54
2023/05/20 06:19:21;;;;;;;4.25;3.88;;;;;;;16.05;60.63;100425.56;10375388;28;20428;-54
2023/05/20 06:24:23;;;;;;;5.05;4.53;;;;;;;16.08;60.72;100417.19;10376040;28;20418;-54
2023/05/20 06:29:25;;;;;;;5.18;4.38;;;;;;;16.05;61.43;100415.66;10374634;28;20167;-54
2023/05/20 06:34:26;;;;;;;5.40;4.90;;;;;;;16.07;60.43;100412.81;10373925;28;20061;-56
2023/05/20 06:39:28;;;;;;;5.15;4.68;;;;;;;16.19;60.97;100422.31;10371791;28;20783;-56
2023/05/20 06:44:30;;;;;;;5.03;4.53;;;;;;;16.22;60.82;100413.94;10371064;28;20057;-54
2023/05/20 06:49:31;;;;;;;5.47;4.95;;;;;;;16.29;60.73;100411.47;10370429;28;20053;-55
2023/05/20 06:54:38;;;;;;;4.63;4.30;;;;;;;16.22;60.63;100411.25;10371382;28;20037;-54
2023/05/20 06:59:40;;;;;;;6.35;5.75;;;;;;;16.29;60.88;100408.78;10367411;28;20130;-53
2023/05/20 07:04:42;;;;;;;6.75;4.70;;;;;;;16.34;60.73;100402.94;10373232;28;20054;-54
2023/05/20 07:09:44;;;;;;;6.03;5.53;;;;;;;16.29;60.80;100407.94;10373675;28;20064;-54
2023/05/20 07:14:46;;;;;;;9.07;5.90;;;;;;;16.46;60.33;100406.22;10372370;28;20056;-54
2023/05/20 07:19:48;;;;;;;6.50;5.90;;;;;;;16.58;60.13;100392.34;10374731;28;20413;-53
2023/05/20 07:24:49;;;;;;;6.10;5.50;;;;;;;16.40;60.35;100364.72;10378695;28;20748;-54
2023/05/20 07:29:51;;;;;;;6.18;5.60;;;;;;;16.75;60.09;100392.44;10378932;28;20850;-54
2023/05/20 07:34:52;;;;;;;6.57;5.43;;;;;;;16.83;60.17;100397.88;10380621;28;20120;-54
2023/05/20 07:39:54;;;;;;;6.80;6.20;;;;;;;16.93;59.80;100385.19;10378851;28;20510;-54
2023/05/20 07:44:55;;;;;;;6.28;5.68;;;;;;;17.17;59.42;100383.56;10377453;28;20080;-54
2023/05/20 07:49:57;;;;;;;7.25;6.55;;;;;;;17.39;59.04;100382.09;10375856;28;20075;-54
2023/05/20 07:54:59;;;;;;;7.22;5.85;;;;;;;17.51;58.87;100357.59;10369022;28;20064;-54
2023/05/20 08:00:00;;;;;;;7.05;6.32;;;;;;;17.63;58.47;100351.69;10369748;28;20063;-53
2023/05/20 08:05:02;;;;;;;6.75;6.07;;;;;;;17.88;58.41;100361.63;10382177;28;20052;-54
2023/05/20 08:10:03;;;;;;;6.07;5.57;;;;;;;18.07;57.96;100368.56;10369665;28;20166;-56
2023/05/20 08:15:06;;;;;;;6.13;5.55;;;;;;;18.19;57.83;100367.19;10386611;28;20077;-54
2023/05/20 08:20:09;;;;;;;7.10;6.40;;;;;;;18.35;57.43;100364.47;10382996;28;20113;-54
2023/05/20 08:25:11;;;;;;;7.90;7.10;;;;;;;18.42;56.90;100355.69;10383917;28;20118;-54
2023/05/20 08:30:12;;;;;;;7.05;6.45;;;;;;;18.54;57.13;100357.03;10382473;28;20052;-54
2023/05/20 08:35:14;;;;;;;7.05;6.47;;;;;;;18.89;55.96;100355.72;10385637;28;20045;-54
2023/05/20 08:40:15;;;;;;;6.85;5.95;;;;;;;19.32;55.98;100339.16;10357063;28;20837;-54
2023/05/20 08:45:19;;;;;;;7.43;6.47;;;;;;;19.49;55.17;100337.19;10385626;28;20123;-54
2023/05/20 08:50:21;;;;;;;6.13;5.63;;;;;;;19.45;54.62;100335.03;10379696;28;20050;-54
2023/05/20 08:55:36;;;;;;;6.00;5.07;;;;;;;19.39;54.35;100337.41;10384037;28;20662;-54
2023/05/20 09:00:38;;;;;;;8.40;5.97;;;;;;;19.34;54.68;100344.38;10382582;28;20053;-54
2023/05/20 09:05:39;;;;;;;6.57;5.97;;;;;;;19.40;54.67;100346.38;10385204;28;20056;-56
2023/05/20 09:10:43;;;;;;;7.20;6.47;;;;;;;19.35;53.81;100333.41;10390876;28;20041;-55
2023/05/20 09:15:45;;;;;;;6.90;6.30;;;;;;;19.47;54.46;100343.78;10378876;28;20306;-54
2023/05/20 09:20:49;;;;;;;7.20;6.60;;;;;;;19.48;54.15;100340.06;10379015;28;20264;-54
2023/05/20 09:25:51;;;;;;;6.25;5.68;;;;;;;19.49;54.32;100337.19;10387153;28;20118;-54
2023/05/20 09:30:57;;;;;;;10.05;9.18;;;;;;;19.70;54.02;100328.41;10383533;28;20049;-54
2023/05/20 09:36:06;;;;;;;9.18;6.20;;;;;;;20.21;54.78;100335.09;10388388;28;20070;-63
2023/05/20 09:41:12;;;;;;;7.22;6.53;;;;;;;20.54;52.04;100323.91;10387317;28;20257;-55
2023/05/20 09:46:15;;;;;;;6.72;6.18;;;;;;;20.75;51.85;100326.72;10385456;28;20219;-54
2023/05/20 09:51:17;;;;;;;7.18;6.10;;;;;;;21.23;50.62;100322.66;10386410;28;20057;-54
2023/05/20 09:56:20;;;;;;;7.88;7.15;;;;;;;21.46;49.49;100331.47;10388855;28;20258;-55
2023/05/20 10:01:22;;;;;;;7.07;6.38;;;;;;;21.48;49.85;100325.84;10378774;28;20688;-55
2023/05/20 10:06:58;;;;;;;7.07;6.47;;;;;;;21.34;49.43;100316.75;10373677;28;20103;-55
2023/05/20 10:12:37;;;;;;;7.80;7.20;;;;;;;21.25;49.04;100318.75;10375153;28;20124;-54
2023/05/20 10:17:45;;;;;;;7.28;6.28;;;;;;;21.09;49.69;100319.00;10375603;28;20491;-54
2023/05/20 10:22:57;;;;;;;9.23;6.47;;;;;;;21.22;49.12;100311.00;10377532;28;20292;-54
2023/05/20 10:28:07;;;;;;;7.57;6.05;;;;;;;21.35;48.89;100316.56;10378691;28;20175;-54
2023/05/20 10:33:16;;;;;;;7.40;6.80;;;;;;;21.68;48.67;100315.25;10378244;28;20580;-54
2023/05/20 10:38:20;;;;;;;6.78;6.05;;;;;;;21.91;48.62;100287.09;10373590;28;20563;-54
2023/05/20 10:43:27;;;;;;;7.38;5.65;;;;;;;22.38;47.32;100288.25;10379660;28;20057;-54
2023/05/20 10:48:32;;;;;;;7.47;6.78;;;;;;;22.62;45.95;100291.50;10372580;28;20060;-55
2023/05/20 10:53:39;;;;;;;6.50;5.88;;;;;;;22.72;46.38;100283.81;10373710;28;20052;-54
2023/05/20 10:58:43;;;;;;;6.35;5.85;;;;;;;22.90;45.67;100270.50;10371782;28;20049;-58
2023/05/20 11:03:48;;;;;;;6.88;5.85;;;;;;;22.92;45.02;100270.31;10373100;28;20055;-54
2023/05/20 11:08:49;;;;;;;6.80;6.20;;;;;;;23.09;44.43;100273.50;10361203;28;20224;-55
2023/05/20 11:13:51;;;;;;;5.97;5.47;;;;;;;22.93;45.55;100275.53;10374235;28;20111;-55
2023/05/20 11:18:53;;;;;;;6.20;5.63;;;;;;;23.20;44.87;100269.38;10376091;28;20076;-55
2023/05/20 11:23:55;;;;;;;7.13;6.43;;;;;;;23.00;44.36;100270.13;10372917;28;20048;-54
2023/05/20 11:28:57;;;;;;;6.18;5.68;;;;;;;23.33;43.95;100272.13;10369965;28;20056;-55
2023/05/20 11:34:01;;;;;;;5.95;5.38;;;;;;;23.57;43.14;100264.38;10374595;28;20053;-54
2023/05/20 11:39:04;;;;;;;6.03;5.53;;;;;;;23.54;43.42;100264.78;10381505;28;20751;-54
2023/05/20 11:44:10;;;;;;;6.20;5.70;;;;;;;23.83;43.13;100258.94;10374530;28;20742;-54
2023/05/20 11:49:12;;;;;;;6.28;5.55;;;;;;;24.00;42.20;100244.94;10383543;28;20073;-54
2023/05/20 11:54:14;;;;;;;5.93;5.43;;;;;;;23.83;43.01;100241.81;10387909;28;20083;-55
2023/05/20 11:59:15;;;;;;;5.95;5.45;;;;;;;23.91;42.44;100246.22;10383268;28;20195;-55
2023/05/20 12:04:17;;;;;;;6.47;5.88;;;;;;;24.03;42.22;100240.97;10385769;28;20041;-55
2023/05/20 12:09:19;;;;;;;5.83;5.33;;;;;;;23.80;42.54;100228.63;10385105;28;20072;-55
2023/05/20 12:14:21;;;;;;;7.88;5.75;;;;;;;23.97;42.25;100238.03;10382762;28;20056;-55
2023/05/20 12:19:22;;;;;;;6.32;5.72;;;;;;;24.03;42.38;100224.66;10387842;28;20136;-53
2023/05/20 12:24:24;;;;;;;6.13;5.53;;;;;;;23.98;42.59;100223.41;10381710;28;20831;-54
2023/05/20 12:29:25;;;;;;;6.38;5.78;;;;;;;23.99;43.12;100207.94;10387345;28;20053;-54
2023/05/20 12:34:27;;;;;;;7.28;6.68;;;;;;;23.84;43.08;100221.75;10384041;28;20045;-54
2023/05/20 12:39:28;;;;;;;6.95;6.35;;;;;;;23.83;42.66;100209.19;10385858;28;20110;-54
2023/05/20 12:44:30;;;;;;;7.40;6.80;;;;;;;23.93;43.30;100206.03;10388548;28;20067;-55
2023/05/20 12:49:31;;;;;;;7.82;7.07;;;;;;;23.81;43.06;100211.28;10376216;28;20078;-54
2023/05/20 12:54:33;;;;;;;7.80;7.13;;;;;;;23.73;43.50;100211.50;10388065;28;20053;-55
2023/05/20 12:59:34;;;;;;;8.07;7.30;;;;;;;23.57;43.68;100191.88;10383643;28;20065;-54
2023/05/20 13:04:36;;;;;;;7.00;6.40;;;;;;;23.45;44.21;100186.25;10385180;28;20049;-55
2023/05/20 13:09:38;;;;;;;7.15;6.55;;;;;;;23.53;44.08;100187.09;10383281;28;20176;-55
2023/05/20 13:14:40;;;;;;;6.55;5.95;;;;;;;23.63;44.14;100193.75;10382121;28;20063;-55
2023/05/20 13:19:42;;;;;;;7.97;7.28;;;;;;;23.67;44.03;100187.91;10384033;28;20157;-55
2023/05/20 13:24:44;;;;;;;7.65;7.05;;;;;;;23.70;43.74;100185.56;10385827;28;20048;-55
2023/05/20 13:29:46;;;;;;;8.73;7.93;;;;;;;23.83;43.15;100187.44;10380434;28;20541;-55
2023/05/20 13:34:47;;;;;;;7.47;6.88;;;;;;;23.78;43.38;100179.06;10385658;28;20053;-55
2023/05/20 13:39:50;;;;;;;6.82;6.22;;;;;;;23.75;43.99;100180.34;10383863;28;20457;-54
2023/05/20 13:44:51;;;;;;;7.17;6.57;;;;;;;23.78;44.51;100173.63;10370506;28;20348;-59
2023/05/20 13:49:53;;;;;;;7.68;7.07;;;;;;;23.51;44.05;100168.28;10379797;28;20954;-59
2023/05/20 13:54:54;;;;;;;7.28;6.68;;;;;;;23.45;44.59;100164.53;10388396;28;20199;-58
2023/05/20 13:59:56;;;;;;;8.52;7.78;;;;;;;23.42;44.46;100153.22;10385807;28;20516;-57
2023/05/20 14:04:57;;;;;;;7.95;7.10;;;;;;;23.34;44.65;100156.16;10388726;28;20476;-59
2023/05/20 14:09:59;;;;;;;7.43;6.82;;;;;;;23.23;44.66;100147.59;10402211;28;20060;-59
2023/05/20 14:15:00;;;;;;;7.45;6.85;;;;;;;23.03;45.18;100149.44;10380270;28;20059;-58
2023/05/20 14:20:02;;;;;;;7.72;7.00;;;;;;;23.01;45.45;100136.06;10386336;28;20088;-58
2023/05/20 14:25:04;;;;;;;8.68;7.88;;;;;;;23.08;45.71;100153.22;10386123;28;20049;-57
2023/05/20 14:30:07;;;;;;;7.90;7.20;;;;;;;22.96;46.08;100130.44;10382273;28;20063;-58
2023/05/20 14:35:08;;;;;;;7.83;7.13;;;;;;;23.07;45.66;100135.25;10382885;28;20183;-55
2023/05/20 14:40:11;;;;;;;8.27;7.45;;;;;;;23.14;45.61;100129.84;10377651;28;20309;-55
2023/05/20 14:45:12;;;;;;;8.15;7.45;;;;;;;23.20;45.96;100125.47;10386088;28;20137;-54
2023/05/20 14:50:14;;;;;;;7.68;7.03;;;;;;;23.28;45.62;100109.81;10377461;28;20622;-56
2023/05/20 14:55:15;;;;;;;8.18;7.50;;;;;;;22.92;45.66;100073.06;10380207;28;20552;-55
2023/05/20 15:00:17;;;;;;;7.50;6.88;;;;;;;23.04;46.17;100119.38;10379758;28;20147;-54
2023/05/20 15:05:19;;;;;;;8.63;6.65;;;;;;;22.88;46.35;100098.06;10382525;28;20550;-54
2023/05/20 15:10:21;;;;;;;7.82;7.13;;;;;;;22.76;46.71;100119.59;10381310;28;20101;-56
2023/05/20 15:15:22;;;;;;;6.93;6.05;;;;;;;22.95;46.69;100109.78;10377867;28;20114;-54
2023/05/20 15:20:24;;;;;;;7.65;6.65;;;;;;;23.00;46.47;100111.84;10379843;28;20533;-55
2023/05/20 15:25:25;;;;;;;8.32;7.53;;;;;;;22.95;46.43;100099.78;10378375;28;20823;-54
2023/05/20 15:30:27;;;;;;;8.30;7.60;;;;;;;22.87;46.46;100093.72;10380544;28;20229;-54
2023/05/20 15:35:28;;;;;;;8.88;8.07;;;;;;;22.70;46.66;100082.41;10375154;28;20069;-54
2023/05/20 15:40:30;;;;;;;8.30;7.60;;;;;;;22.67;47.50;100101.81;10377403;28;20103;-54
2023/05/20 15:45:32;;;;;;;7.32;6.68;;;;;;;22.60;47.36;100097.22;10375572;28;20057;-55
2023/05/20 15:50:35;;;;;;;7.22;6.63;;;;;;;22.37;47.79;100088.66;10378410;28;20599;-54
2023/05/20 15:55:37;;;;;;;;;;;;;;;22.52;47.47;100093.84;10381942;28;20079;-54
2023/05/20 16:00:39;;;;;;;7.47;6.82;;;;;;;22.48;47.84;100060.91;10372107;28;20145;-54
2023/05/20 16:05:40;;;;;;;8.35;7.28;;;;;;;22.58;47.51;100082.22;10379493;28;20045;-55
2023/05/20 16:10:42;;;;;;;8.75;7.93;;;;;;;22.23;48.23;100091.28;10375040;28;20045;-55
2023/05/20 16:15:44;;;;;;;8.07;7.32;;;;;;;22.21;47.99;100097.94;10374527;28;20053;-56
2023/05/20 16:20:46;;;;;;;8.50;7.70;;;;;;;22.12;47.83;100110.84;10365398;28;20056;-54
2023/05/20 16:25:47;;;;;;;8.40;7.70;;;;;;;22.07;48.10;100092.47;10370583;28;20099;-55
2023/05/20 16:30:49;;;;;;;7.70;6.90;;;;;;;21.98;48.44;100109.09;10376966;28;21976;-56
2023/05/20 16:35:51;;;;;;;7.88;7.22;;;;;;;21.95;48.55;100095.94;10385361;28;20971;-54
2023/05/20 16:40:52;;;;;;;8.30;7.50;;;;;;;21.80;48.73;100091.53;10379108;28;20857;-55
2023/05/20 16:45:54;;;;;;;11.32;7.80;;;;;;;21.67;49.33;100086.03;10386400;28;20057;-55
2023/05/20 16:50:56;;;;;;;8.07;7.32;;;;;;;21.58;49.69;100090.78;10385691;28;20061;-55
2023/05/20 16:55:58;;;;;;;8.45;7.70;;;;;;;21.57;49.57;100090.97;10378968;28;20816;-57
2023/05/20 17:01:00;;;;;;;8.18;7.38;;;;;;;21.52;49.95;100092.41;10395604;28;20080;-55
2023/05/20 17:06:02;;;;;;;9.93;8.40;;;;;;;21.51;50.25;100109.72;10378200;28;20125;-56
2023/05/20 17:11:04;;;;;;;9.25;8.48;;;;;;;21.39;50.50;100108.53;10380841;28;20584;-55
2023/05/20 17:16:07;;;;;;;9.07;8.25;;;;;;;21.33;50.81;100107.47;10380517;28;20514;-55
2023/05/20 17:21:10;;;;;;;9.55;8.75;;;;;;;21.02;51.33;100110.56;10380574;28;20419;-55
2023/05/20 17:26:15;;;;;;;9.52;8.68;;;;;;;21.00;51.79;100135.13;10378630;28;20061;-55
2023/05/20 17:31:17;;;;;;;10.25;9.10;;;;;;;20.92;52.13;100134.41;10386642;28;21209;-55
2023/05/20 17:36:21;;;;;;;11.02;9.98;;;;;;;20.87;52.55;100118.78;10385510;28;20057;-55
2023/05/20 17:41:23;;;;;;;9.93;8.93;;;;;;;20.68;53.06;100122.13;10381692;28;20060;-54
2023/05/20 17:46:24;;;;;;;10.05;9.15;;;;;;;20.58;53.42;100114.28;10387362;28;20079;-55
2023/05/20 17:51:26;;;;;;;9.75;8.77;;;;;;;20.69;53.44;100126.47;10384254;28;20079;-56
2023/05/20 17:56:27;;;;;;;10.85;9.88;;;;;;;20.68;53.61;100131.06;10385846;28;20053;-55
2023/05/20 18:01:29;;;;;;;10.93;10.02;;;;;;;20.69;53.74;100134.59;10388086;28;21022;-54
2023/05/20 18:06:33;;;;;;;10.43;9.52;;;;;;;20.43;54.38;100128.72;10383260;28;20049;-56
2023/05/20 18:11:35;;;;;;;11.95;10.85;;;;;;;20.43;54.99;100144.94;10389475;28;20056;-53
2023/05/20 18:16:36;;;;;;;11.55;10.35;;;;;;;20.38;55.03;100141.13;10382740;28;20601;-54
2023/05/20 18:21:38;;;;;;;13.20;11.75;;;;;;;20.34;55.20;100146.03;10382513;28;20475;-55
2023/05/20 18:26:40;;;;;;;11.07;10.10;;;;;;;20.23;55.84;100141.97;10382773;28;20457;-54
2023/05/20 18:31:42;;;;;;;11.80;10.80;;;;;;;20.07;56.12;100124.13;10380659;28;20765;-55
2023/05/20 18:36:44;;;;;;;11.75;10.65;;;;;;;20.18;55.94;100133.59;10384723;28;20055;-55
2023/05/20 18:41:46;;;;;;;12.07;11.00;;;;;;;19.96;56.94;100141.63;10383564;28;20056;-55
2023/05/20 18:46:48;;;;;;;11.23;10.13;;;;;;;19.92;57.07;100148.47;10380784;28;20067;-56
2023/05/20 18:51:49;;;;;;;11.50;10.50;;;;;;;19.85;57.31;100135.91;10394308;28;20048;-55
2023/05/20 18:56:51;;;;;;;12.77;11.68;;;;;;;19.80;57.40;100143.69;10381372;28;20045;-55
2023/05/20 19:01:52;;;;;;;12.73;11.48;;;;;;;19.75;57.84;100134.25;10376170;28;20950;-54
2023/05/20 19:06:54;;;;;;;13.07;11.85;;;;;;;19.78;57.55;100136.63;10389858;28;20060;-54
2023/05/20 19:11:57;;;;;;;13.32;12.13;;;;;;;19.65;58.03;100133.72;10381974;28;20067;-54
2023/05/20 19:16:59;;;;;;;15.95;12.27;;;;;;;19.59;58.55;100138.00;10380181;28;20849;-54
2023/05/20 19:22:01;;;;;;;12.93;11.73;;;;;;;19.58;58.42;100130.91;10372911;28;20406;-54
2023/05/20 19:27:03;;;;;;;12.63;11.43;;;;;;;19.53;58.43;100140.59;10370206;28;20049;-54
2023/05/20 19:32:05;;;;;;;12.85;11.65;;;;;;;19.29;59.01;100136.28;10375713;28;20179;-54
2023/05/20 19:37:07;;;;;;;13.73;12.38;;;;;;;19.29;59.59;100145.22;10371235;28;20065;-54
2023/05/20 19:42:08;;;;;;;13.68;12.27;;;;;;;19.24;59.36;100134.13;10365934;28;20067;-54
2023/05/20 19:47:10;;;;;;;13.70;12.30;;;;;;;19.20;59.76;100143.59;10359651;28;20481;-55
2023/05/20 19:52:11;;;;;;;16.35;13.15;;;;;;;19.08;60.21;100152.16;10370850;28;20060;-55
2023/05/20 19:57:13;;;;;;;14.60;12.38;;;;;;;18.99;60.39;100149.69;10374726;28;20779;-55
2023/05/20 20:02:15;;;;;;;13.40;12.10;;;;;;;18.96;60.83;100147.34;10375685;28;20539;-55
2023/05/20 20:07:17;;;;;;;12.43;11.23;;;;;;;18.89;62.48;100147.25;10374114;28;20053;-58
2023/05/20 20:12:18;;;;;;;13.20;11.90;;;;;;;18.94;61.88;100150.22;10380570;28;20059;-59
2023/05/20 20:17:21;;;;;;;13.75;12.45;;;;;;;18.98;61.39;100150.72;10365897;28;20064;-59
2023/05/20 20:22:23;;;;;;;13.93;12.63;;;;;;;19.02;61.50;100150.19;10379278;28;20052;-59
2023/05/20 20:27:25;;;;;;;15.45;13.85;;;;;;;18.92;61.83;100138.78;10381741;28;20053;-59
2023/05/20 20:32:26;;;;;;;12.57;11.35;;;;;;;18.98;61.54;100148.84;10379352;28;20171;-54
2023/05/20 20:37:28;;;;;;;14.13;12.82;;;;;;;18.79;62.23;100135.81;10373164;28;20055;-55
2023/05/20 20:42:31;;;;;;;13.10;11.60;;;;;;;18.78;62.25;100128.75;10374105;28;20112;-56
2023/05/20 20:47:32;;;;;;;13.90;12.50;;;;;;;18.48;62.76;100128.63;10386295;28;20300;-60
2023/05/20 20:52:35;;;;;;;13.63;12.35;;;;;;;18.42;63.02;100121.25;10387263;28;20476;-56
2023/05/20 20:57:36;;;;;;;12.60;11.27;;;;;;;18.41;63.30;100114.19;10380095;28;20048;-55
2023/05/20 21:02:38;;;;;;;14.68;13.25;;;;;;;18.28;63.48;100115.59;10381263;28;20042;-56
2023/05/20 21:07:43;;;;;;;13.40;12.00;;;;;;;18.14;64.57;100110.97;10373351;28;20735;-55
2023/05/20 21:12:45;;;;;;;13.35;12.05;;;;;;;18.21;64.13;100111.97;10379907;28;20156;-56
2023/05/20 21:17:46;;;;;;;13.23;11.98;;;;;;;18.12;64.23;100097.69;10378595;28;20131;-55
2023/05/20 21:22:48;;;;;;;13.82;12.43;;;;;;;18.17;64.59;100099.84;10382143;28;20045;-57
2023/05/20 21:27:49;;;;;;;13.98;12.57;;;;;;;18.01;65.21;100104.31;10374246;28;20132;-56
2023/05/20 21:32:51;;;;;;;15.75;12.57;;;;;;;17.83;65.04;100082.13;10383882;28;20073;-56
2023/05/20 21:37:53;;;;;;;14.00;12.60;;;;;;;17.98;65.34;100101.09;10386730;28;20135;-56
2023/05/20 21:42:54;;;;;;;12.18;11.07;;;;;;;17.82;65.51;100083.16;10380184;28;20049;-56
2023/05/20 21:47:56;;;;;;;13.88;12.48;;;;;;;17.95;64.80;100096.91;10381764;28;20049;-56
2023/05/20 21:52:57;;;;;;;12.27;11.10;;;;;;;17.65;65.89;100079.69;10378536;28;20049;-56
2023/05/20 21:57:59;;;;;;;14.35;11.75;;;;;;;17.69;65.67;100075.63;10381168;28;20053;-56
2023/05/20 22:03:00;;;;;;;12.88;11.63;;;;;;;17.81;65.81;100076.09;10388020;28;20862;-56
2023/05/20 22:08:02;;;;;;;12.65;11.35;;;;;;;17.72;65.72;100077.16;10385943;28;20072;-56
2023/05/20 22:13:04;;;;;;;12.77;11.48;;;;;;;17.56;65.99;100051.94;10381480;28;20133;-56
2023/05/20 22:18:05;;;;;;;13.02;11.75;;;;;;;17.65;66.20;100069.78;10382413;28;20077;-56
2023/05/20 22:23:08;;;;;;;13.00;11.73;;;;;;;17.57;66.45;100067.09;10374098;28;20595;-55
2023/05/20 22:28:09;;;;;;;13.95;12.48;;;;;;;17.51;66.64;100066.97;10374633;28;20379;-54
2023/05/20 22:33:11;;;;;;;13.93;12.27;;;;;;;17.48;66.77;100047.44;10373776;28;20211;-56
2023/05/20 22:38:13;;;;;;;13.70;11.65;;;;;;;17.59;66.46;100048.06;10382691;28;20103;-56
2023/05/20 22:43:15;;;;;;;12.85;11.52;;;;;;;17.61;66.44;100046.91;10375487;28;20311;-56
2023/05/20 22:48:18;;;;;;;14.55;12.18;;;;;;;17.55;66.23;100039.53;10375919;28;20057;-55
2023/05/20 22:53:19;;;;;;;14.18;10.82;;;;;;;17.48;66.61;100041.22;10383517;28;20763;-55
2023/05/20 22:58:21;;;;;;;12.55;11.15;;;;;;;17.46;66.85;100033.34;10377413;28;20118;-55
2023/05/20 23:03:22;;;;;;;12.65;11.35;;;;;;;17.28;67.13;100009.34;10373943;28;20782;-55